createdAt,value
2023-04-03T00:00:01.729Z,95828.34
2023-04-03T00:03:44.779Z,95820.97
2023-04-03T00:07:27.459Z,95813.81
2023-04-03T00:11:10.894Z,95825.88
2023-04-03T00:14:53.540Z,95822.28
2023-04-03T00:18:38.156Z,95830.16
2023-04-03T00:22:20.840Z,95828.53
2023-04-03T00:26:04.165Z,95830.16
2023-04-03T00:29:46.865Z,95823.56
2023-04-03T00:33:29.628Z,95829.44
2023-04-03T00:37:13.638Z,95829.44
2023-04-03T00:40:56.334Z,95826.00
2023-04-03T00:45:16.368Z,95826.00
2023-04-03T00:48:59.030Z,95833.16
2023-04-03T00:52:43.141Z,95827.03
2023-04-03T00:56:27.555Z,95822.13
2023-04-03T01:00:13.287Z,95823.47
2023-04-03T01:03:56.522Z,95825.78
2023-04-03T01:07:39.499Z,95831.13
2023-04-03T01:11:23.736Z,95824.00
2023-04-03T01:15:08.751Z,95834.25
2023-04-03T01:18:51.481Z,95833.94
2023-04-03T01:22:40.953Z,95834.91
2023-04-03T01:26:25.046Z,95830.53
2023-04-03T01:30:09.088Z,95818.78
2023-04-03T01:33:53.453Z,95837.16
2023-04-03T01:37:36.110Z,95838.56
2023-04-03T01:41:19.109Z,95844.88
2023-04-03T01:45:01.812Z,95841.03
2023-04-03T01:48:44.751Z,95839.38
2023-04-03T01:52:28.800Z,95834.19
2023-04-03T01:56:11.512Z,95829.50
2023-04-03T01:59:54.176Z,95828.97
2023-04-03T02:03:37.045Z,95828.69
2023-04-03T02:07:19.727Z,95828.97
2023-04-03T02:11:03.793Z,95831.59
2023-04-03T02:14:46.518Z,95824.75
2023-04-03T02:18:29.168Z,95834.69
2023-04-03T02:22:11.845Z,95823.47
2023-04-03T02:26:03.864Z,95830.31
2023-04-03T02:29:47.893Z,95824.44
2023-04-03T02:33:30.836Z,95821.84
2023-04-03T02:37:13.491Z,95817.59
2023-04-03T02:41:01.887Z,95820.88
2023-04-03T02:44:44.518Z,95828.38
2023-04-03T02:48:28.610Z,95831.66
2023-04-03T02:52:11.527Z,95825.63
2023-04-03T02:55:54.189Z,95827.72
2023-04-03T02:59:36.974Z,95816.94
2023-04-03T03:03:19.642Z,95830.63
2023-04-03T03:07:03.869Z,95828.97
2023-04-03T03:10:46.565Z,95835.81
2023-04-03T03:14:29.298Z,95833.88
2023-04-03T03:18:11.935Z,95830.16
2023-04-03T03:21:54.598Z,95834.25
2023-04-03T03:25:41.286Z,95828.38
2023-04-03T03:29:24.228Z,95831.94
2023-04-03T03:33:06.987Z,95828.38
2023-04-03T03:36:49.677Z,95823.19
2023-04-03T03:40:32.394Z,95828.06
2023-04-03T03:44:16.471Z,95830.97
2023-04-03T03:47:59.220Z,95843.47
2023-04-03T03:51:41.985Z,95837.31
2023-04-03T03:55:24.688Z,95834.19
2023-04-03T03:59:07.704Z,95822.44
2023-04-03T04:02:51.815Z,95827.34
2023-04-03T04:06:34.591Z,95827.34
2023-04-03T04:10:17.533Z,95829.28
2023-04-03T04:14:00.225Z,95830.63
2023-04-03T04:17:42.912Z,95826.53
2023-04-03T04:21:27.570Z,95837.44
2023-04-03T04:25:10.828Z,95835.81
2023-04-03T04:28:53.646Z,95835.22
2023-04-03T04:32:36.655Z,95834.84
2023-04-03T04:36:19.433Z,95834.69
2023-04-03T04:40:03.985Z,95839.38
2023-04-03T04:43:46.726Z,95839.91
2023-04-03T04:47:31.314Z,95838.34
2023-04-03T04:51:14.238Z,95843.56
2023-04-03T04:54:57.020Z,95840.94
2023-04-03T04:58:41.017Z,95843.56
2023-04-03T05:02:23.772Z,95843.56
2023-04-03T05:06:06.802Z,95853.94
2023-04-03T05:09:49.539Z,95846.66
2023-04-03T05:13:32.204Z,95848.00
2023-04-03T05:17:16.394Z,95851.44
2023-04-03T05:20:59.667Z,95853.44
2023-04-03T05:24:42.339Z,95851.72
2023-04-03T05:28:25.352Z,95860.56
2023-04-03T05:32:07.956Z,95857.16
2023-04-03T05:35:52.135Z,95855.88
2023-04-03T05:39:34.995Z,95858.03
2023-04-03T05:43:17.866Z,95855.81
2023-04-03T05:47:00.675Z,95860.56
2023-04-03T05:50:43.426Z,95853.34
2023-04-03T05:54:28.947Z,95858.25
2023-04-03T05:58:11.944Z,95857.28
2023-04-03T06:01:54.630Z,95859.22
2023-04-03T06:05:37.528Z,95864.06
2023-04-03T06:09:22.004Z,95863.91
2023-04-03T06:13:06.982Z,95867.34
2023-04-03T06:16:50.550Z,95874.75
2023-04-03T06:20:33.305Z,95872.00
2023-04-03T06:24:18.327Z,95873.28
2023-04-03T06:28:01.888Z,95872.97
2023-04-03T06:31:46.353Z,95878.19
2023-04-03T06:35:29.554Z,95875.34
2023-04-03T06:39:15.155Z,95884.13
2023-04-03T06:42:57.857Z,95878.09
2023-04-03T06:46:41.253Z,95876.69
2023-04-03T06:50:25.483Z,95884.91
2023-04-03T06:54:09.312Z,95884.66
2023-04-03T06:57:52.770Z,95886.06
2023-04-03T07:01:35.456Z,95887.09
2023-04-03T07:05:18.206Z,95886.34
2023-04-03T07:09:03.756Z,95897.44
2023-04-03T07:12:47.189Z,95889.25
2023-04-03T07:16:31.970Z,95894.19
2023-04-03T07:20:16.094Z,95902.59
2023-04-03T07:23:58.793Z,95903.31
2023-04-03T07:27:43.402Z,95912.72
2023-04-03T07:31:26.339Z,95905.47
2023-04-03T07:35:09.630Z,95914.72
2023-04-03T07:38:52.348Z,95921.56
2023-04-03T07:42:34.996Z,95921.66
2023-04-03T07:46:19.739Z,95924.16
2023-04-03T07:50:02.618Z,95922.06
2023-04-03T07:53:45.269Z,95922.97
2023-04-03T07:57:27.924Z,95926.09
2023-04-03T08:01:11.550Z,95939.44
2023-04-03T08:04:56.180Z,95936.47
2023-04-03T08:08:39.084Z,95928.50
2023-04-03T08:12:21.964Z,95942.34
2023-04-03T08:16:12.806Z,95947.47
2023-04-03T08:19:56.911Z,95950.72
2023-04-03T08:23:39.672Z,95945.09
2023-04-03T08:27:22.378Z,95943.03
2023-04-03T08:31:07.988Z,95946.75
2023-04-03T08:34:50.890Z,95944.50
2023-04-03T08:38:37.746Z,95951.63
2023-04-03T08:42:29.818Z,95953.94
2023-04-03T08:46:17.075Z,95950.31
2023-04-03T08:50:01.509Z,95945.81
2023-04-03T08:53:49.331Z,95952.53
2023-04-03T08:57:33.535Z,95950.81
2023-04-03T09:01:21.865Z,95954.00
2023-04-03T09:05:11.401Z,95954.66
2023-04-03T09:09:02.562Z,95958.38
2023-04-03T09:12:48.700Z,95958.13
2023-04-03T09:16:49.945Z,95956.91
2023-04-03T09:20:42.551Z,95958.22
2023-04-03T09:24:26.950Z,95956.81
2023-04-03T09:28:11.189Z,95954.78
2023-04-03T09:31:58.474Z,95955.47
2023-04-03T09:35:48.067Z,95953.53
2023-04-03T09:39:32.903Z,95955.97
2023-04-03T09:43:36.742Z,95948.34
2023-04-03T09:47:21.167Z,95947.41
2023-04-03T09:51:04.038Z,95953.28
2023-04-03T09:54:48.102Z,95943.16
2023-04-03T09:58:46.787Z,95950.00
2023-04-03T10:02:38.566Z,95957.00
2023-04-03T10:06:25.191Z,95951.13
2023-04-03T10:10:21.273Z,95949.03
2023-04-03T10:14:07.857Z,95943.78
2023-04-03T10:17:56.364Z,95940.47
2023-04-03T10:21:45.111Z,95941.63
2023-04-03T10:25:33.915Z,95943.09
2023-04-03T10:29:27.074Z,95949.25
2023-04-03T10:33:31.584Z,95942.09
2023-04-03T10:37:20.648Z,95940.44
2023-04-03T10:41:09.879Z,95936.56
2023-04-03T10:45:03.615Z,95939.16
2023-04-03T10:48:55.122Z,95940.75
2023-04-03T10:52:41.600Z,95948.00
2023-04-03T10:56:33.577Z,95950.31
2023-04-03T11:00:19.334Z,95946.28
2023-04-03T11:04:03.631Z,95943.81
2023-04-03T11:07:50.053Z,95958.06
2023-04-03T11:11:36.327Z,95956.94
2023-04-03T11:15:21.779Z,95958.44
2023-04-03T11:19:07.373Z,95947.78
2023-04-03T11:22:53.726Z,95951.34
2023-04-03T11:26:41.228Z,95945.16
2023-04-03T11:30:27.144Z,95935.72
2023-04-03T11:34:19.514Z,95938.31
2023-04-03T11:38:03.783Z,95932.81
2023-04-03T11:41:47.956Z,95926.03
2023-04-03T11:45:48.273Z,95922.47
2023-04-03T11:49:59.184Z,95926.56
2023-04-03T11:53:43.121Z,95921.75
2023-04-03T11:58:05.173Z,95932.16
2023-04-03T12:01:49.684Z,95924.13
2023-04-03T12:05:32.823Z,95920.63
2023-04-03T12:09:25.754Z,95912.34
2023-04-03T12:13:17.900Z,95919.38
2023-04-03T12:17:01.031Z,95910.25
2023-04-03T12:20:58.189Z,95909.78
2023-04-03T12:24:41.989Z,95901.84
2023-04-03T12:28:26.575Z,95912.63
2023-04-03T12:32:14.476Z,95899.19
2023-04-03T12:36:05.954Z,95906.03
2023-04-03T12:40:06.774Z,95910.31
2023-04-03T12:44:03.700Z,95891.44
2023-04-03T12:47:47.115Z,95893.75
2023-04-03T12:51:36.003Z,95884.28
2023-04-03T12:55:21.152Z,95886.72
2023-04-03T12:59:18.175Z,95871.56
2023-04-03T13:03:01.472Z,95875.16
2023-04-03T13:06:45.755Z,95882.31
2023-04-03T13:10:28.455Z,95880.72
2023-04-03T13:14:18.499Z,95866.66
2023-04-03T13:18:01.550Z,95877.44
2023-04-03T13:21:45.088Z,95869.59
2023-04-03T13:25:30.591Z,95878.63
2023-04-03T13:29:31.067Z,95867.25
2023-04-03T13:33:23.787Z,95864.41
2023-04-03T13:37:08.361Z,95860.44
2023-04-03T13:40:52.467Z,95860.06
2023-04-03T13:44:40.465Z,95851.09
2023-04-03T13:48:24.754Z,95852.59
2023-04-03T13:52:25.928Z,95853.69
2023-04-03T13:56:10.397Z,95856.41
2023-04-03T13:59:55.053Z,95860.06
2023-04-03T14:03:43.994Z,95853.03
2023-04-03T14:07:27.319Z,95862.72
2023-04-03T14:11:16.378Z,95850.97
2023-04-03T14:15:01.000Z,95852.63
2023-04-03T14:18:43.828Z,95843.16
2023-04-03T14:22:29.300Z,95839.56
2023-04-03T14:26:14.464Z,95839.56
2023-04-03T14:29:58.966Z,95834.28
2023-04-03T14:33:43.218Z,95835.03
2023-04-03T14:37:28.787Z,95824.75
2023-04-03T14:41:16.820Z,95828.78
2023-04-03T14:45:00.102Z,95826.19
2023-04-03T14:48:44.417Z,95832.09
2023-04-03T14:52:29.140Z,95818.03
2023-04-03T14:56:16.973Z,95815.69
2023-04-03T14:59:59.961Z,95820.47
2023-04-03T15:03:44.126Z,95834.41
2023-04-03T15:07:29.927Z,95824.91
2023-04-03T15:11:13.070Z,95833.06
2023-04-03T15:15:01.746Z,95828.97
2023-04-03T15:18:48.216Z,95834.63
2023-04-03T15:22:30.987Z,95838.16
2023-04-03T15:26:13.800Z,95835.28
2023-04-03T15:29:56.514Z,95838.44
2023-04-03T15:33:39.427Z,95830.25
2023-04-03T15:37:23.526Z,95835.13
2023-04-03T15:41:06.318Z,95844.00
2023-04-03T15:44:48.977Z,95834.19
2023-04-03T15:48:31.802Z,95835.94
2023-04-03T15:52:14.545Z,95835.06
2023-04-03T15:55:58.573Z,95830.47
2023-04-03T15:59:41.501Z,95824.94
2023-04-03T16:03:25.406Z,95834.38
2023-04-03T16:07:08.236Z,95839.44
2023-04-03T16:10:51.062Z,95835.50
2023-04-03T16:14:35.056Z,95832.59
2023-04-03T16:18:19.377Z,95846.59
2023-04-03T16:22:02.052Z,95844.09
2023-04-03T16:25:47.142Z,95849.25
2023-04-03T16:29:29.906Z,95855.84
2023-04-03T16:33:14.403Z,95856.06
2023-04-03T16:36:59.173Z,95847.94
2023-04-03T16:40:41.924Z,95863.84
2023-04-03T16:44:24.565Z,95867.31
2023-04-03T16:48:07.525Z,95869.63
2023-04-03T16:51:51.700Z,95868.28
2023-04-03T16:55:34.492Z,95877.09
2023-04-03T16:59:17.236Z,95867.63
2023-04-03T17:02:59.930Z,95872.69
2023-04-03T17:06:42.637Z,95869.91
2023-04-03T17:10:27.056Z,95867.97
2023-04-03T17:14:09.705Z,95874.44
2023-04-03T17:17:53.722Z,95880.09
2023-04-03T17:21:36.393Z,95883.50
2023-04-03T17:25:20.100Z,95887.22
2023-04-03T17:29:04.376Z,95886.41
2023-04-03T17:32:47.020Z,95895.50
2023-04-03T17:36:30.086Z,95886.72
2023-04-03T17:40:14.966Z,95885.03
2023-04-03T17:43:57.592Z,95892.19
2023-04-03T17:47:41.676Z,95905.09
2023-04-03T17:51:25.218Z,95906.88
2023-04-03T17:55:08.714Z,95909.66
2023-04-03T17:58:52.098Z,95901.34
2023-04-03T18:02:35.021Z,95904.44
2023-04-03T18:06:20.719Z,95916.31
2023-04-03T18:10:05.005Z,95910.47
2023-04-03T18:13:47.975Z,95909.16
2023-04-03T18:17:30.932Z,95911.09
2023-04-03T18:21:14.843Z,95916.00
2023-04-03T18:24:59.277Z,95913.31
2023-04-03T18:28:44.207Z,95930.09
2023-04-03T18:32:27.012Z,95933.78
2023-04-03T18:36:10.366Z,95921.03
2023-04-03T18:39:53.240Z,95927.38
2023-04-03T18:43:37.377Z,95933.19
2023-04-03T18:47:20.138Z,95934.34
2023-04-03T18:51:03.127Z,95938.50
2023-04-03T18:54:45.799Z,95941.56
2023-04-03T18:58:28.405Z,95942.41
2023-04-03T19:02:12.945Z,95935.84
2023-04-03T19:05:55.641Z,95944.88
2023-04-03T19:09:39.492Z,95944.53
2023-04-03T19:13:22.109Z,95938.63
2023-04-03T19:17:07.337Z,95945.50
2023-04-03T19:20:51.386Z,95950.16
2023-04-03T19:24:34.130Z,95961.63
2023-04-03T19:28:16.780Z,95949.75
2023-04-03T19:32:00.185Z,95961.31
2023-04-03T19:35:44.931Z,95957.66
2023-04-03T19:39:30.853Z,95959.97
2023-04-03T19:43:14.229Z,95952.44
2023-04-03T19:46:57.198Z,95956.06
2023-04-03T19:50:39.876Z,95959.41
2023-04-03T19:54:23.477Z,95963.00
2023-04-03T19:58:07.954Z,95962.34
2023-04-03T20:01:50.920Z,95967.41
2023-04-03T20:05:34.166Z,95959.22
2023-04-03T20:09:18.221Z,95964.84
2023-04-03T20:13:00.865Z,95971.56
2023-04-03T20:16:45.468Z,95958.16
2023-04-03T20:20:28.608Z,95961.47
2023-04-03T20:24:13.045Z,95964.50
2023-04-03T20:27:58.001Z,95960.81
2023-04-03T20:31:42.009Z,95965.31
2023-04-03T20:35:27.785Z,95970.56
2023-04-03T20:39:10.752Z,95962.66
2023-04-03T20:42:53.943Z,95965.22
2023-04-03T20:46:51.585Z,95955.25
2023-04-03T20:50:36.767Z,95958.91
2023-04-03T20:54:19.472Z,95967.00
2023-04-03T20:58:02.222Z,95960.44
2023-04-03T21:01:45.010Z,95963.72
2023-04-03T21:05:30.306Z,95961.41
2023-04-03T21:09:51.517Z,95956.09
2023-04-03T21:14:12.639Z,95961.84
2023-04-03T21:18:07.651Z,95962.13
2023-04-03T21:21:51.993Z,95957.47
2023-04-03T21:25:35.125Z,95956.13
2023-04-03T21:29:17.755Z,95965.44
2023-04-03T21:33:01.819Z,95965.88
2023-04-03T21:36:45.068Z,95963.56
2023-04-03T21:40:27.845Z,95966.72
2023-04-03T21:44:10.574Z,95970.91
2023-04-03T21:47:53.806Z,95965.22
2023-04-03T21:51:38.883Z,95968.50
2023-04-03T21:55:21.572Z,95967.81
2023-04-03T21:59:04.457Z,95967.09
2023-04-03T22:02:47.581Z,95957.81
2023-04-03T22:06:31.192Z,95957.13
2023-04-03T22:10:15.605Z,95952.63
2023-04-03T22:13:58.384Z,95948.13
2023-04-03T22:17:41.050Z,95954.00
2023-04-03T22:21:23.716Z,95953.16
2023-04-03T22:25:07.326Z,95951.25
2023-04-03T22:28:51.421Z,95952.06
2023-04-03T22:32:34.147Z,95941.69
2023-04-03T22:36:16.858Z,95941.16
2023-04-03T22:39:59.585Z,95940.06
2023-04-03T22:43:42.707Z,95944.44
2023-04-03T22:47:26.953Z,95932.41
2023-04-03T22:51:09.766Z,95931.88
2023-04-03T22:54:52.373Z,95938.16
2023-04-03T22:58:35.394Z,95951.25
2023-04-03T23:02:18.054Z,95948.38
2023-04-03T23:06:03.465Z,95953.66
2023-04-03T23:09:46.136Z,95946.81
2023-04-03T23:13:29.091Z,95945.19
2023-04-03T23:17:11.728Z,95944.78
2023-04-03T23:20:54.656Z,95946.94
2023-04-03T23:24:39.768Z,95937.41
2023-04-03T23:28:22.876Z,95942.44
2023-04-03T23:32:05.976Z,95940.78
2023-04-03T23:35:49.108Z,95941.59
2023-04-03T23:39:33.059Z,95937.09
2023-04-03T23:43:17.252Z,95937.63
2023-04-03T23:47:00.048Z,95935.03
2023-04-03T23:50:43.053Z,95936.00
2023-04-03T23:54:33.539Z,95940.22
2023-04-03T23:58:19.172Z,95932.59
